Historyczne dane pomiarowe

Dodano dane terminowe – wersja testowa.

Dane z okresu 1951-2019

Wersja bazy: 1.34 [2019-03-16, lista zmian], aktualizacja planowana na 2019-04-15

Dane meteo z obszaru Polski uzyskane na podstawie danych udostępnionych przez Instytut Meteorologii i Gospodarki Wodnej – Państwowy Instytut Badawczy.

 

Wybierz Datę:    

       

TemperaturaWilgotnośćWiatrCiśnienieOpadyŚniegCzas trwania zjawisk
 Stacja t tx tn tng RH VA  wxwx mslp ppp RRR   cm mm wxwxwxwxwxwxwx
1994-08-14 12.8 17.0 9.8 8.3 78.8- 4.3 7.7---- 1.6------------
1994-08-13 16.9 21.6 10.7 6.1 79.3- 6.3 4.0---- 2.3------------
1994-08-12 16.1 23.0 10.3 5.7 81.5- 4.7 1.3---- 0.0------------
1994-08-11 18.1 23.6 8.5 5.1 70.8- 4.0 3.7---- 0.0------------
1994-08-10 17.2 23.8 8.8 5.2 80.8- 2.7 2.3---- 0.0------------
1994-08-09 18.6 23.2 12.3 9.1 77.3- 5.3 2.0---- 0.1------------
1994-08-08 19.0 25.8 11.8 8.2 71.3- 3.3 2.7---- 0.0------------
1994-08-07 20.3 25.3 14.5 10.1 72.8- 3.3 4.0---- 0.0------------
1994-08-06 22.8 30.3 13.5 9.9 65.5- 3.0 4.3---- 0.0------------
1994-08-05 21.2 29.9 10.5 4.8 75.5- 2.0 2.3---- 0.0------------
1994-08-04 21.0 26.6 15.8 11.7 76.5- 2.7 2.3---- 0.0------------
1994-08-03 21.4 25.6 17.3 15.0 81.5- 7.0 3.7---- 0.0------------
1994-08-02 23.3 28.5 18.7 15.9 80.5- 6.0 2.0---- 0.0------------
1994-08-01 23.5 27.5 18.9 14.1 73.0- 5.3 4.3---- 3.6------------
1994-07-31 25.5 31.7 19.0 14.8 73.8- 5.7 4.3---- 4.5------------
1994-07-30 24.9 34.7 17.0 13.6 62.8- 3.7 2.7---- 0.0------------
1994-07-29 25.9 34.5 15.2 11.6 62.5- 3.3 3.0---- 0.0------------
1994-07-28 23.5 31.3 13.6 9.6 65.3- 1.0 2.3---- 0.0------------
1994-07-27 23.9 32.7 12.0 8.2 55.5- 1.7 2.3---- 0.0------------
1994-07-26 22.8 29.5 11.2 7.0 61.8- 2.7 3.0---- 0.0------------
1994-07-25 20.7 26.9 10.2 6.1 67.0- 0.7 3.0---- 0.0------------
1994-07-24 20.1 27.9 8.5 4.7 64.3- 0.7 3.0---- 0.0------------
1994-07-23 19.4 26.6 8.3 4.3 63.3- 3.7 2.0---- 0.0------------
1994-07-22 17.9 24.1 6.9 2.0 70.5- 3.3 2.0---- 0.0------------
1994-07-21 17.7 27.0 7.3 2.3 71.8- 3.3 3.7---- 0.0------------
1994-07-20 16.9 22.6 6.7 1.1 67.5- 1.3 4.3---- 0.0------------
1994-07-19 16.1 21.7 6.8 1.8 67.0- 2.3 3.7---- 0.0------------
1994-07-18 15.6 21.3 7.4 2.8 73.3- 3.3 4.3---- 0.0------------
1994-07-17 18.9 23.7 14.4 10.4 65.3- 5.3 3.7---- 0.0------------
1994-07-16 20.9 26.5 15.6 11.7 70.5- 5.7 3.3---- 0.0------------
1994-07-15 24.3 31.6 15.0 10.9 62.3- 5.3 3.7---- 0.0------------
1994-07-14 24.2 31.1 14.2 10.1 63.5- 3.3 3.0---- 0.0------------
1994-07-13 22.8 29.7 12.4 8.0 58.5- 4.0 2.7---- 0.0------------
1994-07-12 20.3 26.9 9.2 5.1 64.5- 2.3 3.3---- 0.0------------
1994-07-11 20.2 27.2 10.4 4.7 63.3- 1.3 3.0---- 0.0------------
1994-07-10 20.0 26.5 11.4 5.9 68.3- 1.7 3.0---- 0.0------------
1994-07-09 16.7 21.0 12.5 9.4 80.0- 4.0 2.3---- 0.0------------
1994-07-08 15.4 22.4 6.6 2.4 78.5- 5.7 3.3---- 4.1------------
1994-07-07 14.1 20.2 3.3 -1.6 77.5- 1.7 2.7---- 0.0------------
1994-07-06 14.6 21.1 7.7 2.3 76.3- 3.3 4.3---- 0.0------------
1994-07-05 15.0 21.5 6.2 -0.3 74.3- 4.7 4.3---- 0.0------------
1994-07-04 16.4 22.9 6.0 0.8 65.0- 1.0 3.0---- 0.0------------
1994-07-03 15.1 21.1 5.4 -0.5 66.5- 3.7 2.3---- 0.0------------
1994-07-02 14.8 20.7 5.4 0.1 70.3- 1.3 2.0---- 0.0------------
1994-07-01 14.9 19.7 10.7 6.5 71.3- 2.0 5.0---- 0.0------------
1994-06-30 17.6 25.0 14.9 12.6 81.3- 4.0 7.3---- 0.0------------
1994-06-29 20.3 26.5 9.4 5.1 77.8- 3.0 3.7---- 6.1------------
1994-06-28 18.9 25.8 10.8 5.7 72.0- 1.0 1.7---- 0.0------------
1994-06-27 18.9 24.1 14.1 10.1 71.0- 4.3 5.3---- 0.0------------
1994-06-26 21.0 30.3 13.1 6.7 54.3- 1.0 5.3---- 0.0------------
1994-06-25 15.7 23.4 4.5 -2.5 64.0- 1.3 3.7---- 0.0------------
1994-06-24 12.9 16.7 9.2 5.1 69.5- 3.7 7.7---- 0.0------------
1994-06-23 12.6 15.4 10.0 6.0 71.0- 4.0 14.7---- 1.1------------
1994-06-22 16.1 19.5 13.4 10.6 83.5- 7.3 7.7---- 0.5------------
1994-06-21 14.0 20.2 6.0 0.3 71.8- 6.0 3.3---- 0.1------------
1994-06-20 12.8 15.4 9.3 3.2 75.3- 3.7 8.3---- 0.0------------
1994-06-19 12.2 14.0 9.6 6.3 91.8- 8.0 6.7---- 1.6------------
1994-06-18 10.9 16.5 4.2 -0.6 79.0- 7.0 5.0---- 3.8------------
1994-06-17 9.1 12.4 4.6 -0.9 82.3- 4.3 5.7---- 2.8------------
1994-06-16 10.3 13.8 7.8 4.2 75.5- 5.3 7.3---- 0.5------------
499.2 ms

 

Źródłem pochodzenia danych jest Instytut Meteorologii i Gospodarki Wodnej – Państwowy Instytut Badawczy. Dane Instytutu Meteorologii i Gospodarki Wodnej – Państwowego Instytutu Badawczego zostały przetworzone.

Dane źródłowe można odnaleźć na stronie https://dane.imgw.pl